createdAt,value
2022-08-17T00:00:43.929Z,98406.31
2022-08-17T00:03:35.533Z,98402.75
2022-08-17T00:06:25.103Z,98399.97
2022-08-17T00:09:10.361Z,98404.00
2022-08-17T00:12:43.071Z,98400.91
2022-08-17T00:15:13.378Z,98402.44
2022-08-17T00:17:58.762Z,98400.41
2022-08-17T00:20:44.005Z,98402.44
2022-08-17T00:23:29.342Z,98404.00
2022-08-17T00:26:16.069Z,98405.22
2022-08-17T00:29:21.384Z,98403.69
2022-08-17T00:33:16.083Z,98405.22
2022-08-17T00:35:14.833Z,98404.44
2022-08-17T00:38:00.155Z,98403.69
2022-08-17T00:40:47.653Z,98399.66
2022-08-17T00:43:44.138Z,98407.22
2022-08-17T00:46:33.002Z,98406.78
2022-08-17T00:49:23.651Z,98407.69
2022-08-17T00:52:16.658Z,98408.00
2022-08-17T00:55:03.165Z,98401.66
2022-08-17T00:57:55.356Z,98406.78
2022-08-17T01:00:46.002Z,98403.69
2022-08-17T01:03:31.676Z,98404.00
2022-08-17T01:06:17.696Z,98405.22
2022-08-17T01:09:04.299Z,98402.09
2022-08-17T01:11:52.745Z,98392.97
2022-08-17T01:14:39.618Z,98406.47
2022-08-17T01:17:27.296Z,98408.78
2022-08-17T01:20:12.836Z,98410.00
2022-08-17T01:22:59.461Z,98404.88
2022-08-17T01:25:45.506Z,98409.25
2022-08-17T01:28:54.137Z,98410.00
2022-08-17T01:31:48.054Z,98415.59
2022-08-17T01:34:42.928Z,98415.59
2022-08-17T01:37:41.321Z,98412.03
2022-08-17T01:40:38.937Z,98412.34
2022-08-17T01:43:28.422Z,98412.03
2022-08-17T01:46:22.786Z,98416.03
2022-08-17T01:49:10.818Z,98412.91
2022-08-17T01:51:57.054Z,98420.38
2022-08-17T01:54:47.373Z,98423.50
2022-08-17T01:57:32.818Z,98417.91
2022-08-17T02:00:18.328Z,98415.25
2022-08-17T02:03:04.572Z,98418.81
2022-08-17T02:05:50.735Z,98419.59
2022-08-17T02:08:37.154Z,98421.16
2022-08-17T02:11:24.560Z,98421.59
2022-08-17T02:14:11.109Z,98423.16
2022-08-17T02:16:56.966Z,98417.59
2022-08-17T02:19:42.404Z,98410.47
2022-08-17T02:22:28.811Z,98413.25
2022-08-17T02:25:18.181Z,98418.81
2022-08-17T02:28:07.517Z,98416.03
2022-08-17T02:31:02.768Z,98418.03
2022-08-17T02:33:56.876Z,98414.94
2022-08-17T02:36:49.673Z,98412.91
2022-08-17T02:39:34.871Z,98411.69
2022-08-17T02:42:26.306Z,98410.94
2022-08-17T02:45:17.826Z,98415.69
2022-08-17T02:48:04.070Z,98415.69
2022-08-17T02:50:49.776Z,98418.47
2022-08-17T02:53:36.131Z,98415.69
2022-08-17T02:56:21.924Z,98416.34
2022-08-17T02:59:07.128Z,98412.47
2022-08-17T03:01:53.727Z,98413.25
2022-08-17T03:04:39.550Z,98414.00
2022-08-17T03:07:24.750Z,98408.91
2022-08-17T03:10:11.516Z,98413.72
2022-08-17T03:12:57.646Z,98410.13
2022-08-17T03:15:47.275Z,98413.72
2022-08-17T03:18:32.766Z,98411.69
2022-08-17T03:21:17.997Z,98411.22
2022-08-17T03:24:08.750Z,98411.69
2022-08-17T03:26:54.460Z,98400.25
2022-08-17T03:29:40.561Z,98405.03
2022-08-17T03:32:25.868Z,98404.56
2022-08-17T03:35:12.987Z,98406.47
2022-08-17T03:38:01.746Z,98402.09
2022-08-17T03:40:56.260Z,98402.09
2022-08-17T03:43:44.488Z,98398.88
2022-08-17T03:46:48.378Z,98395.00
2022-08-17T03:49:52.401Z,98391.88
2022-08-17T03:52:56.260Z,98391.13
2022-08-17T03:55:59.846Z,98393.56
2022-08-17T03:58:45.909Z,98396.34
2022-08-17T04:01:32.111Z,98395.88
2022-08-17T04:04:18.913Z,98394.66
2022-08-17T04:07:11.593Z,98397.13
2022-08-17T04:09:58.216Z,98400.69
2022-08-17T04:12:54.585Z,98400.69
2022-08-17T04:15:40.395Z,98399.47
2022-08-17T04:18:26.089Z,98402.25
2022-08-17T04:21:11.401Z,98403.47
2022-08-17T04:23:58.068Z,98413.84
2022-08-17T04:26:43.824Z,98411.03
2022-08-17T04:29:54.450Z,98422.19
2022-08-17T04:33:05.447Z,98414.16
2022-08-17T04:35:55.318Z,98407.03
2022-08-17T04:38:43.165Z,98418.16
2022-08-17T04:41:47.043Z,98412.25
2022-08-17T04:44:37.758Z,98421.41
2022-08-17T04:47:23.493Z,98422.19
2022-08-17T04:50:09.347Z,98426.19
2022-08-17T04:52:54.899Z,98421.41
2022-08-17T04:55:40.984Z,98426.19
2022-08-17T04:58:26.354Z,98433.75
2022-08-17T05:01:11.865Z,98432.97
2022-08-17T05:04:00.780Z,98435.78
2022-08-17T05:07:06.010Z,98439.31
2022-08-17T05:09:51.273Z,98446.00
2022-08-17T05:12:36.450Z,98444.44
2022-08-17T05:15:21.616Z,98445.66
2022-08-17T05:18:08.239Z,98440.44
2022-08-17T05:20:54.511Z,98437.97
2022-08-17T05:23:42.553Z,98440.44
2022-08-17T05:26:29.358Z,98442.44
2022-08-17T05:29:14.931Z,98434.09
2022-08-17T05:32:38.357Z,98438.88
2022-08-17T05:35:16.927Z,98430.97
2022-08-17T05:38:02.353Z,98437.31
2022-08-17T05:40:48.173Z,98436.09
2022-08-17T05:43:37.508Z,98427.75
2022-08-17T05:46:30.277Z,98439.31
2022-08-17T05:49:17.997Z,98443.34
2022-08-17T05:52:09.628Z,98440.09
2022-08-17T05:55:07.144Z,98434.53
2022-08-17T05:58:07.473Z,98439.31
2022-08-17T06:01:31.836Z,98431.75
2022-08-17T06:04:53.288Z,98440.91
2022-08-17T06:07:45.234Z,98437.31
2022-08-17T06:10:40.107Z,98439.31
2022-08-17T06:13:51.914Z,98448.44
2022-08-17T06:16:41.949Z,98442.09
2022-08-17T06:19:37.298Z,98443.69
2022-08-17T06:22:28.034Z,98447.69
2022-08-17T06:25:17.510Z,98450.47
2022-08-17T06:28:13.820Z,98452.47
2022-08-17T06:31:08.009Z,98446.47
2022-08-17T06:33:54.408Z,98447.69
2022-08-17T06:37:03.708Z,98446.78
2022-08-17T06:40:09.019Z,98444.00
2022-08-17T06:43:16.587Z,98444.44
2022-08-17T06:46:17.264Z,98441.66
2022-08-17T06:49:18.208Z,98444.44
2022-08-17T06:52:46.551Z,98438.88
2022-08-17T06:55:38.099Z,98451.56
2022-08-17T06:58:29.519Z,98444.44
2022-08-17T07:01:21.775Z,98447.56
2022-08-17T07:04:21.518Z,98447.13
2022-08-17T07:07:28.638Z,98450.66
2022-08-17T07:10:14.832Z,98449.44
2022-08-17T07:13:16.742Z,98446.31
2022-08-17T07:16:15.062Z,98449.44
2022-08-17T07:19:00.651Z,98451.78
2022-08-17T07:22:14.222Z,98453.78
2022-08-17T07:25:04.718Z,98448.53
2022-08-17T07:27:53.649Z,98441.72
2022-08-17T07:30:49.284Z,98450.09
2022-08-17T07:33:36.906Z,98442.50
2022-08-17T07:36:30.114Z,98447.97
2022-08-17T07:39:27.499Z,98445.16
2022-08-17T07:42:12.840Z,98444.84
2022-08-17T07:44:58.403Z,98445.94
2022-08-17T07:48:09.290Z,98449.50
2022-08-17T07:50:54.429Z,98447.50
2022-08-17T07:53:39.864Z,98443.50
2022-08-17T07:57:03.433Z,98449.81
2022-08-17T08:00:01.356Z,98443.03
2022-08-17T08:03:00.971Z,98438.56
2022-08-17T08:05:57.843Z,98433.78
2022-08-17T08:08:50.621Z,98435.34
2022-08-17T08:11:40.123Z,98438.91
2022-08-17T08:14:33.624Z,98438.91
2022-08-17T08:17:23.942Z,98434.09
2022-08-17T08:20:40.823Z,98442.00
2022-08-17T08:23:32.470Z,98437.22
2022-08-17T08:26:33.013Z,98433.66
2022-08-17T08:29:41.368Z,98437.97
2022-08-17T08:33:08.544Z,98445.56
2022-08-17T08:36:04.255Z,98437.22
2022-08-17T08:39:06.377Z,98445.56
2022-08-17T08:42:00.487Z,98445.88
2022-08-17T08:44:59.822Z,98450.69
2022-08-17T08:48:23.093Z,98441.09
2022-08-17T08:51:34.707Z,98440.66
2022-08-17T08:54:36.581Z,98439.06
2022-08-17T08:57:34.465Z,98436.63
2022-08-17T09:00:23.570Z,98435.84
2022-08-17T09:03:28.103Z,98440.66
2022-08-17T09:06:45.871Z,98439.41
2022-08-17T09:09:40.661Z,98442.97
2022-08-17T09:12:44.341Z,98440.19
2022-08-17T09:15:40.397Z,98436.19
2022-08-17T09:19:00.795Z,98438.50
2022-08-17T09:21:58.754Z,98434.47
2022-08-17T09:24:54.724Z,98431.69
2022-08-17T09:27:56.987Z,98431.69
2022-08-17T09:31:03.014Z,98434.03
2022-08-17T09:33:49.681Z,98433.25
2022-08-17T09:36:42.393Z,98428.47
2022-08-17T09:39:45.561Z,98432.78
2022-08-17T09:42:37.934Z,98428.00
2022-08-17T09:45:50.763Z,98424.88
2022-08-17T09:48:41.899Z,98429.69
2022-08-17T09:52:07.495Z,98436.81
2022-08-17T09:54:55.883Z,98435.25
2022-08-17T09:58:09.335Z,98422.44
2022-08-17T10:01:08.600Z,98428.31
2022-08-17T10:04:12.333Z,98425.53
2022-08-17T10:07:07.142Z,98421.53
2022-08-17T10:09:55.915Z,98410.41
2022-08-17T10:12:47.338Z,98411.59
2022-08-17T10:15:36.770Z,98412.84
2022-08-17T10:18:25.630Z,98415.50
2022-08-17T10:21:37.616Z,98415.81
2022-08-17T10:25:22.236Z,98418.59
2022-08-17T10:27:59.801Z,98414.13
2022-08-17T10:31:10.488Z,98418.16
2022-08-17T10:34:20.775Z,98417.38
2022-08-17T10:37:14.072Z,98423.72
2022-08-17T10:40:36.398Z,98424.97
2022-08-17T10:43:32.965Z,98424.66
2022-08-17T10:46:54.041Z,98422.19
2022-08-17T10:49:53.728Z,98419.41
2022-08-17T10:52:42.593Z,98416.91
2022-08-17T10:55:29.176Z,98419.69
2022-08-17T10:58:22.052Z,98410.13
2022-08-17T11:01:09.022Z,98408.56
2022-08-17T11:03:57.404Z,98399.44
2022-08-17T11:07:06.103Z,98396.63
2022-08-17T11:10:17.064Z,98400.19
2022-08-17T11:13:48.699Z,98397.72
2022-08-17T11:17:05.006Z,98392.16
2022-08-17T11:20:08.781Z,98390.94
2022-08-17T11:23:07.504Z,98390.94
2022-08-17T11:25:59.168Z,98392.97
2022-08-17T11:28:50.407Z,98389.38
2022-08-17T11:31:41.319Z,98395.75
2022-08-17T11:34:30.292Z,98390.19
2022-08-17T11:37:25.273Z,98391.38
2022-08-17T11:40:29.410Z,98390.63
2022-08-17T11:43:45.522Z,98379.94
2022-08-17T11:46:55.396Z,98391.06
2022-08-17T11:50:25.805Z,98386.25
2022-08-17T11:53:39.325Z,98389.06
2022-08-17T11:56:46.746Z,98391.06
2022-08-17T11:59:36.474Z,98384.72
2022-08-17T12:02:31.646Z,98373.91
2022-08-17T12:05:18.091Z,98372.66
2022-08-17T12:08:20.122Z,98374.59
2022-08-17T12:12:01.687Z,98371.78
2022-08-17T12:14:45.460Z,98351.19
2022-08-17T12:17:51.900Z,98353.50
2022-08-17T12:20:43.409Z,98355.09
2022-08-17T12:23:47.502Z,98360.66
2022-08-17T12:26:36.192Z,98363.44
2022-08-17T12:29:38.893Z,98358.19
2022-08-17T12:32:33.259Z,98355.41
2022-08-17T12:35:25.200Z,98361.28
2022-08-17T12:38:32.744Z,98356.50
2022-08-17T12:41:44.168Z,98373.53
2022-08-17T12:44:31.493Z,98365.63
2022-08-17T12:47:22.223Z,98356.03
2022-08-17T12:50:28.882Z,98356.81
2022-08-17T12:53:28.400Z,98347.69
2022-08-17T12:56:13.867Z,98350.00
2022-08-17T12:58:59.924Z,98342.88
2022-08-17T13:01:48.065Z,98335.28
2022-08-17T13:04:33.302Z,98338.09
2022-08-17T13:07:31.104Z,98342.13
2022-08-17T13:10:32.746Z,98328.19
2022-08-17T13:13:24.912Z,98341.63
2022-08-17T13:16:14.297Z,98342.88
2022-08-17T13:19:17.635Z,98331.75
2022-08-17T13:22:18.381Z,98336.53
2022-08-17T13:25:07.473Z,98338.09
2022-08-17T13:27:55.407Z,98340.09
2022-08-17T13:30:41.053Z,98335.28
2022-08-17T13:33:43.632Z,98339.63
2022-08-17T13:36:33.722Z,98352.78
2022-08-17T13:39:24.364Z,98347.97
2022-08-17T13:42:29.348Z,98347.97
2022-08-17T13:45:35.285Z,98349.22
2022-08-17T13:48:26.827Z,98344.44
2022-08-17T13:51:30.379Z,98345.19
2022-08-17T13:54:33.423Z,98345.19
2022-08-17T13:57:23.389Z,98333.28
2022-08-17T14:00:30.137Z,98337.63
2022-08-17T14:03:15.458Z,98339.63
2022-08-17T14:06:00.931Z,98342.72
2022-08-17T14:08:46.124Z,98340.41
2022-08-17T14:11:31.551Z,98340.41
2022-08-17T14:14:17.371Z,98345.19
2022-08-17T14:17:03.746Z,98333.28
2022-08-17T14:19:50.938Z,98339.63
2022-08-17T14:22:41.010Z,98346.00
2022-08-17T14:25:29.394Z,98335.63
2022-08-17T14:28:14.838Z,98323.22
2022-08-17T14:31:03.159Z,98319.66
2022-08-17T14:33:48.378Z,98312.09
2022-08-17T14:36:34.250Z,98310.88
2022-08-17T14:39:20.200Z,98300.94
2022-08-17T14:42:05.960Z,98310.09
2022-08-17T14:44:52.782Z,98308.06
2022-08-17T14:47:40.517Z,98312.41
2022-08-17T14:50:25.809Z,98318.75
2022-08-17T14:53:13.969Z,98317.19
2022-08-17T14:55:59.253Z,98315.97
2022-08-17T14:58:44.523Z,98313.66
2022-08-17T15:01:29.873Z,98312.41
2022-08-17T15:04:17.257Z,98315.97
2022-08-17T15:07:03.849Z,98319.53
2022-08-17T15:09:49.565Z,98323.53
2022-08-17T15:12:35.316Z,98319.53
2022-08-17T15:15:21.295Z,98325.13
2022-08-17T15:18:08.359Z,98325.13
2022-08-17T15:20:53.796Z,98317.97
2022-08-17T15:23:39.857Z,98315.19
2022-08-17T15:26:26.429Z,98315.66
2022-08-17T15:29:11.734Z,98319.22
2022-08-17T15:32:00.560Z,98311.63
2022-08-17T15:34:47.396Z,98308.06
2022-08-17T15:37:33.510Z,98317.19
2022-08-17T15:40:18.947Z,98310.09
2022-08-17T15:43:13.640Z,98302.50
2022-08-17T15:46:12.108Z,98298.94
2022-08-17T15:48:59.509Z,98305.28
2022-08-17T15:51:45.062Z,98295.38
2022-08-17T15:54:34.471Z,98292.56
2022-08-17T15:57:24.036Z,98282.22
2022-08-17T16:00:10.593Z,98281.44
2022-08-17T16:03:46.978Z,98283.44
2022-08-17T16:06:07.872Z,98283.00
2022-08-17T16:08:57.715Z,98279.91
2022-08-17T16:11:46.059Z,98277.13
2022-08-17T16:14:39.185Z,98284.69
2022-08-17T16:17:40.177Z,98287.00
2022-08-17T16:20:27.558Z,98285.47
2022-08-17T16:23:18.464Z,98293.38
2022-08-17T16:26:05.617Z,98284.69
2022-08-17T16:28:51.361Z,98274.78
2022-08-17T16:31:37.784Z,98272.00
2022-08-17T16:34:23.267Z,98274.00
2022-08-17T16:37:11.340Z,98285.47
2022-08-17T16:39:57.411Z,98300.16
2022-08-17T16:42:43.365Z,98285.47
2022-08-17T16:45:36.382Z,98287.94
2022-08-17T16:48:22.144Z,98293.06
2022-08-17T16:51:08.437Z,98290.28
2022-08-17T16:53:54.236Z,98288.72
2022-08-17T16:56:44.955Z,98293.50
2022-08-17T16:59:41.946Z,98297.53
2022-08-17T17:02:33.481Z,98298.31
2022-08-17T17:05:25.233Z,98305.91
2022-08-17T17:08:25.796Z,98304.66
2022-08-17T17:11:26.685Z,98301.09
2022-08-17T17:14:20.415Z,98301.88
2022-08-17T17:17:27.894Z,98303.41
2022-08-17T17:20:24.414Z,98308.97
2022-08-17T17:23:34.346Z,98303.41
2022-08-17T17:26:32.265Z,98314.25
2022-08-17T17:29:48.174Z,98319.84
2022-08-17T17:32:48.217Z,98317.81
2022-08-17T17:36:00.181Z,98322.63
2022-08-17T17:38:52.931Z,98315.16
2022-08-17T17:41:51.928Z,98329.09
2022-08-17T17:45:15.182Z,98330.19
2022-08-17T17:48:00.683Z,98325.41
2022-08-17T17:51:15.225Z,98327.88
2022-08-17T17:54:46.576Z,98338.53
2022-08-17T17:57:57.136Z,98338.22
2022-08-17T18:01:23.015Z,98336.53
2022-08-17T18:04:40.761Z,98337.75
2022-08-17T18:07:38.031Z,98339.78
2022-08-17T18:10:51.356Z,98339.00
2022-08-17T18:13:41.375Z,98342.56
2022-08-17T18:16:29.616Z,98345.81
2022-08-17T18:19:20.706Z,98347.38
2022-08-17T18:22:17.967Z,98345.34
2022-08-17T18:25:38.187Z,98354.16
2022-08-17T18:28:35.777Z,98350.16
2022-08-17T18:31:21.857Z,98348.91
2022-08-17T18:34:45.928Z,98346.13
2022-08-17T18:37:43.549Z,98351.06
2022-08-17T18:40:36.135Z,98341.78
2022-08-17T18:43:28.301Z,98346.13
2022-08-17T18:46:35.282Z,98348.59
2022-08-17T18:49:28.001Z,98344.72
2022-08-17T18:52:15.222Z,98344.25
2022-08-17T18:55:02.284Z,98347.03
2022-08-17T18:57:49.363Z,98340.38
2022-08-17T19:00:41.833Z,98352.28
2022-08-17T19:03:27.614Z,98355.09
2022-08-17T19:06:34.332Z,98347.81
2022-08-17T19:09:36.836Z,98349.50
2022-08-17T19:12:31.505Z,98348.25
2022-08-17T19:15:23.290Z,98351.81
2022-08-17T19:18:17.718Z,98351.69
2022-08-17T19:21:53.323Z,98353.25
2022-08-17T19:24:47.619Z,98352.63
2022-08-17T19:27:50.563Z,98353.38
2022-08-17T19:30:42.969Z,98351.69
2022-08-17T19:33:31.399Z,98341.31
2022-08-17T19:36:21.593Z,98343.00
2022-08-17T19:39:47.238Z,98342.25
2022-08-17T19:43:00.696Z,98351.81
2022-08-17T19:46:11.501Z,98347.81
2022-08-17T19:49:11.767Z,98342.13
2022-08-17T19:52:37.609Z,98350.91
2022-08-17T19:55:31.501Z,98346.13
2022-08-17T19:58:38.287Z,98343.34
2022-08-17T20:01:38.198Z,98343.34
2022-08-17T20:04:31.779Z,98340.88
2022-08-17T20:07:28.568Z,98326.16
2022-08-17T20:10:26.520Z,98331.41
2022-08-17T20:13:33.225Z,98331.88
2022-08-17T20:16:20.104Z,98340.56
2022-08-17T20:19:14.351Z,98332.97
2022-08-17T20:22:18.291Z,98329.41
2022-08-17T20:25:17.877Z,98328.19
2022-08-17T20:28:23.902Z,98338.53
2022-08-17T20:31:45.416Z,98337.31
2022-08-17T20:34:37.370Z,98335.75
2022-08-17T20:37:23.533Z,98327.88
2022-08-17T20:40:09.366Z,98336.53
2022-08-17T20:42:56.145Z,98334.97
2022-08-17T20:45:46.138Z,98330.66
2022-08-17T20:48:39.661Z,98326.31
2022-08-17T20:51:27.515Z,98327.06
2022-08-17T20:54:18.922Z,98334.66
2022-08-17T20:57:09.218Z,98325.66
2022-08-17T21:00:15.368Z,98335.91
2022-08-17T21:03:22.694Z,98331.56
2022-08-17T21:06:17.272Z,98333.13
2022-08-17T21:09:12.635Z,98332.78
2022-08-17T21:12:04.317Z,98335.59
2022-08-17T21:15:01.251Z,98335.09
2022-08-17T21:17:59.116Z,98341.47
2022-08-17T21:21:02.722Z,98342.03
2022-08-17T21:23:54.330Z,98357.38
2022-08-17T21:26:52.205Z,98362.31
2022-08-17T21:30:12.322Z,98365.47
2022-08-17T21:33:16.501Z,98375.13
2022-08-17T21:36:15.685Z,98366.31
2022-08-17T21:39:10.073Z,98374.69
2022-08-17T21:41:57.416Z,98369.47
2022-08-17T21:44:49.361Z,98375.44
2022-08-17T21:47:35.285Z,98367.44
2022-08-17T21:50:24.392Z,98373.47
2022-08-17T21:53:22.299Z,98375.13
2022-08-17T21:56:09.880Z,98376.38
2022-08-17T21:59:02.999Z,98385.97
2022-08-17T22:01:59.746Z,98385.19
2022-08-17T22:04:59.527Z,98387.50
2022-08-17T22:07:48.118Z,98390.31
2022-08-17T22:10:44.614Z,98382.06
2022-08-17T22:13:30.347Z,98378.06
2022-08-17T22:16:29.067Z,98379.28
2022-08-17T22:19:15.510Z,98377.63
2022-08-17T22:22:10.709Z,98381.28
2022-08-17T22:25:05.986Z,98374.34
2022-08-17T22:28:00.274Z,98367.56
2022-08-17T22:31:04.396Z,98367.25
2022-08-17T22:34:11.933Z,98369.72
2022-08-17T22:37:21.399Z,98371.72
2022-08-17T22:40:24.793Z,98381.63
2022-08-17T22:43:12.653Z,98384.09
2022-08-17T22:46:00.045Z,98385.66
2022-08-17T22:48:55.944Z,98392.44
2022-08-17T22:51:41.280Z,98395.53
2022-08-17T22:54:46.631Z,98389.66
2022-08-17T22:57:52.138Z,98389.66
2022-08-17T23:00:39.864Z,98388.44
2022-08-17T23:03:28.024Z,98386.09
2022-08-17T23:06:13.311Z,98377.75
2022-08-17T23:08:58.503Z,98384.09
2022-08-17T23:11:50.363Z,98378.19
2022-08-17T23:14:41.245Z,98375.72
2022-08-17T23:17:30.421Z,98376.19
2022-08-17T23:20:19.305Z,98372.16
2022-08-17T23:23:07.130Z,98371.84
2022-08-17T23:25:52.634Z,98375.72
2022-08-17T23:28:38.375Z,98376.19
2022-08-17T23:31:25.962Z,98378.50
2022-08-17T23:34:15.124Z,98384.09
2022-08-17T23:37:04.244Z,98371.41
2022-08-17T23:39:49.701Z,98372.94
2022-08-17T23:42:35.325Z,98372.94
2022-08-17T23:45:20.739Z,98376.19
2022-08-17T23:48:07.911Z,98381.78
2022-08-17T23:50:56.329Z,98387.63
2022-08-17T23:53:46.377Z,98377.28
2022-08-17T23:56:33.599Z,98366.16
2022-08-17T23:59:22.566Z,98367.69
